createdAt,value
2022-10-21T00:00:57.721Z,15.38
2022-10-21T00:03:26.379Z,19.23
2022-10-21T00:05:53.556Z,23.25
2022-10-21T00:08:21.546Z,27.65
2022-10-21T00:10:56.346Z,30.73
2022-10-21T00:13:24.929Z,28.63
2022-10-21T00:16:02.640Z,29.55
2022-10-21T00:18:30.916Z,29.70
2022-10-21T00:21:00.818Z,30.23
2022-10-21T00:23:28.010Z,26.73
2022-10-21T00:25:59.060Z,27.02
2022-10-21T00:28:27.154Z,28.23
2022-10-21T00:30:54.338Z,30.42
2022-10-21T00:33:21.594Z,25.45
2022-10-21T00:35:53.346Z,29.55
2022-10-21T00:40:52.459Z,27.67
2022-10-21T00:43:19.508Z,25.45
2022-10-21T00:45:49.716Z,25.02
2022-10-21T00:48:29.650Z,25.50
2022-10-21T00:51:03.967Z,28.30
2022-10-21T00:53:33.429Z,24.67
2022-10-21T00:56:06.871Z,27.35
2022-10-21T00:58:35.511Z,25.38
2022-10-21T01:01:05.291Z,29.73
2022-10-21T01:03:36.684Z,27.42
2022-10-21T01:06:09.847Z,25.38
2022-10-21T01:11:06.008Z,29.08
2022-10-21T01:13:47.604Z,28.98
2022-10-21T01:16:21.037Z,32.38
2022-10-21T01:19:10.396Z,30.55
2022-10-21T01:21:44.189Z,27.33
2022-10-21T01:24:29.772Z,28.17
2022-10-21T01:26:59.930Z,24.80
2022-10-21T01:29:54.520Z,29.92
2022-10-21T01:32:21.378Z,28.45
2022-10-21T01:35:12.383Z,28.52
2022-10-21T01:38:00.288Z,25.15
2022-10-21T01:40:51.567Z,23.67
2022-10-21T01:43:40.684Z,22.90
2022-10-21T01:46:24.887Z,22.65
2022-10-21T01:49:14.902Z,25.33
2022-10-21T01:51:42.971Z,23.63
2022-10-21T01:54:16.171Z,24.65
2022-10-21T01:59:13.722Z,22.35
2022-10-21T02:01:41.360Z,19.92
2022-10-21T02:04:10.015Z,25.13
2022-10-21T02:06:37.033Z,24.63
2022-10-21T02:09:04.256Z,25.58
2022-10-21T02:11:34.042Z,23.70
2022-10-21T02:14:13.919Z,27.50
2022-10-21T02:16:41.724Z,21.88
2022-10-21T02:19:16.282Z,21.38
2022-10-21T02:21:45.394Z,25.17
2022-10-21T02:24:27.314Z,21.33
2022-10-21T02:26:54.826Z,24.83
2022-10-21T02:29:27.700Z,24.33
2022-10-21T02:31:54.534Z,24.67
2022-10-21T02:34:32.534Z,22.80
2022-10-21T02:37:21.464Z,22.38
2022-10-21T02:39:57.067Z,21.17
2022-10-21T02:42:28.797Z,27.40
2022-10-21T02:44:55.713Z,20.60
2022-10-21T02:47:26.169Z,20.33
2022-10-21T02:49:53.077Z,23.80
2022-10-21T02:52:20.011Z,22.23
2022-10-21T02:54:46.935Z,21.23
2022-10-21T02:57:13.802Z,19.60
2022-10-21T02:59:40.814Z,18.48
2022-10-21T03:02:07.727Z,20.13
2022-10-21T03:04:34.667Z,21.60
2022-10-21T03:07:01.630Z,18.20
2022-10-21T03:09:28.572Z,20.40
2022-10-21T03:11:55.489Z,19.17
2022-10-21T03:14:22.395Z,16.35
2022-10-21T03:16:49.444Z,20.52
2022-10-21T03:19:16.324Z,20.10
2022-10-21T03:21:43.265Z,17.98
2022-10-21T03:24:15.520Z,19.15
2022-10-21T03:26:54.672Z,16.52
2022-10-21T03:29:21.635Z,14.70
2022-10-21T03:31:48.550Z,16.52
2022-10-21T03:34:15.501Z,14.73
2022-10-21T03:36:42.525Z,15.95
2022-10-21T03:39:11.114Z,17.23
2022-10-21T03:41:38.069Z,19.75
2022-10-21T03:44:05.007Z,18.27
2022-10-21T03:46:32.124Z,14.48
2022-10-21T03:49:02.823Z,17.42
2022-10-21T03:51:31.404Z,14.02
2022-10-21T03:53:58.388Z,18.40
2022-10-21T03:56:25.352Z,16.42
2022-10-21T03:58:57.694Z,16.73
2022-10-21T04:01:25.862Z,15.30
2022-10-21T04:03:53.023Z,14.48
2022-10-21T04:06:20.003Z,15.73
2022-10-21T04:08:46.948Z,15.15
2022-10-21T04:11:13.908Z,15.35
2022-10-21T04:13:40.886Z,16.02
2022-10-21T04:16:12.775Z,13.43
2022-10-21T04:18:39.741Z,20.20
2022-10-21T04:21:06.785Z,15.48
2022-10-21T04:23:33.713Z,19.98
2022-10-21T04:26:00.739Z,18.92
2022-10-21T04:28:27.632Z,15.85
2022-10-21T04:30:54.563Z,16.35
2022-10-21T04:33:21.422Z,18.90
2022-10-21T04:35:48.395Z,14.32
2022-10-21T04:38:15.482Z,15.57
2022-10-21T04:40:42.399Z,18.33
2022-10-21T04:43:09.383Z,18.23
2022-10-21T04:45:39.940Z,14.80
2022-10-21T04:48:07.501Z,17.05
2022-10-21T04:50:35.370Z,14.48
2022-10-21T04:53:02.223Z,16.75
2022-10-21T04:55:29.272Z,18.75
2022-10-21T04:57:56.168Z,16.65
2022-10-21T05:00:23.131Z,19.20
2022-10-21T05:02:50.025Z,17.05
2022-10-21T05:05:17.064Z,21.90
2022-10-21T05:07:43.988Z,17.92
2022-10-21T05:10:10.907Z,21.98
2022-10-21T05:12:37.790Z,22.83
2022-10-21T05:15:05.054Z,22.90
2022-10-21T05:17:31.915Z,23.15
2022-10-21T05:19:58.927Z,22.73
2022-10-21T05:22:25.816Z,22.15
2022-10-21T05:24:52.727Z,22.98
2022-10-21T05:27:19.671Z,19.80
2022-10-21T05:29:46.518Z,25.75
2022-10-21T05:32:13.557Z,25.90
2022-10-21T05:34:40.448Z,27.45
2022-10-21T05:37:07.549Z,25.23
2022-10-21T05:39:34.649Z,22.67
2022-10-21T05:42:01.645Z,22.48
2022-10-21T05:44:28.607Z,26.83
2022-10-21T05:46:55.470Z,27.73
2022-10-21T05:49:22.612Z,23.58
2022-10-21T05:51:49.734Z,23.27
2022-10-21T05:54:16.725Z,23.45
2022-10-21T05:56:43.834Z,20.40
2022-10-21T05:59:11.406Z,20.75
2022-10-21T06:01:39.651Z,24.17
2022-10-21T06:04:07.113Z,28.83
2022-10-21T06:06:34.189Z,24.55
2022-10-21T06:09:01.156Z,29.55
2022-10-21T06:11:28.093Z,28.10
2022-10-21T06:13:55.331Z,26.25
2022-10-21T06:16:22.705Z,23.88
2022-10-21T06:18:49.981Z,27.27
2022-10-21T06:21:17.019Z,24.10
2022-10-21T06:23:43.934Z,25.70
2022-10-21T06:26:15.753Z,25.08
2022-10-21T06:28:44.572Z,23.88
2022-10-21T06:31:15.185Z,23.70
2022-10-21T06:33:42.377Z,24.45
2022-10-21T06:36:09.416Z,29.63
2022-10-21T06:38:37.983Z,21.77
2022-10-21T06:41:13.068Z,25.50
2022-10-21T06:43:42.039Z,25.80
2022-10-21T06:46:14.116Z,32.28
2022-10-21T06:48:44.395Z,27.38
2022-10-21T06:51:16.246Z,27.75
2022-10-21T06:53:44.322Z,27.35
2022-10-21T06:56:17.441Z,31.45
2022-10-21T06:58:49.073Z,24.42
2022-10-21T07:01:33.677Z,25.88
2022-10-21T07:04:07.602Z,21.00
2022-10-21T07:06:34.606Z,23.92
2022-10-21T07:09:01.580Z,26.10
2022-10-21T07:11:28.608Z,33.78
2022-10-21T07:13:56.061Z,20.15
2022-10-21T07:16:26.869Z,20.50
2022-10-21T07:18:55.396Z,25.85
2022-10-21T07:21:24.123Z,19.42
2022-10-21T07:23:52.417Z,22.45
2022-10-21T07:26:23.149Z,25.67
2022-10-21T07:28:51.113Z,22.40
2022-10-21T07:31:20.444Z,22.23
2022-10-21T07:33:47.881Z,22.92
2022-10-21T07:36:24.121Z,25.17
2022-10-21T07:38:52.379Z,23.67
2022-10-21T07:41:23.021Z,24.17
2022-10-21T07:43:50.771Z,20.20
2022-10-21T07:46:20.272Z,21.90
2022-10-21T07:48:47.567Z,23.80
2022-10-21T07:51:16.999Z,35.65
2022-10-21T07:53:43.964Z,30.25
2022-10-21T07:56:20.777Z,37.95
2022-10-21T07:58:48.289Z,24.58
2022-10-21T08:01:18.086Z,26.48
2022-10-21T08:03:45.917Z,27.85
2022-10-21T08:06:15.707Z,21.75
2022-10-21T08:08:44.084Z,33.35
2022-10-21T08:11:11.449Z,37.38
2022-10-21T08:13:41.562Z,38.00
2022-10-21T08:16:08.509Z,30.75
2022-10-21T08:18:35.367Z,23.75
2022-10-21T08:21:04.288Z,32.00
2022-10-21T08:23:31.510Z,26.08
2022-10-21T08:26:00.878Z,24.08
2022-10-21T08:28:29.473Z,27.67
2022-10-21T08:31:07.513Z,30.30
2022-10-21T08:33:34.798Z,20.15
2022-10-21T08:36:10.744Z,23.42
2022-10-21T08:38:37.975Z,25.05
2022-10-21T08:41:20.168Z,21.45
2022-10-21T08:43:47.135Z,23.50
2022-10-21T08:46:19.699Z,20.30
2022-10-21T08:48:52.763Z,25.45
2022-10-21T08:51:29.234Z,29.48
2022-10-21T08:54:01.581Z,23.88
2022-10-21T08:56:30.738Z,15.52
2022-10-21T08:58:57.740Z,19.38
2022-10-21T09:01:47.286Z,24.08
2022-10-21T09:04:37.686Z,24.02
2022-10-21T09:07:14.418Z,27.33
2022-10-21T09:10:01.695Z,24.38
2022-10-21T09:12:31.632Z,23.70
2022-10-21T09:15:15.367Z,17.63
2022-10-21T09:18:04.393Z,22.35
2022-10-21T09:20:54.924Z,22.45
2022-10-21T09:23:49.854Z,19.27
2022-10-21T09:28:58.508Z,21.45
2022-10-21T09:31:25.429Z,25.08
2022-10-21T09:34:02.615Z,24.52
2022-10-21T09:36:47.730Z,24.67
2022-10-21T09:39:22.950Z,24.83
2022-10-21T09:41:59.345Z,17.55
2022-10-21T09:44:28.878Z,27.73
2022-10-21T09:46:55.882Z,22.63
2022-10-21T09:50:02.116Z,22.70
2022-10-21T09:52:28.866Z,28.08
2022-10-21T09:54:56.475Z,33.75
2022-10-21T09:57:41.070Z,26.77
2022-10-21T10:00:12.693Z,22.35
2022-10-21T10:02:44.342Z,21.92
2022-10-21T10:05:44.204Z,19.42
2022-10-21T10:08:27.058Z,21.65
2022-10-21T10:13:30.651Z,22.77
2022-10-21T10:16:31.113Z,21.42
2022-10-21T10:19:22.432Z,23.45
2022-10-21T10:22:16.540Z,23.88
2022-10-21T10:24:44.724Z,28.23
2022-10-21T10:27:23.498Z,20.92
2022-10-21T10:29:54.609Z,21.45
2022-10-21T10:32:25.744Z,21.55
2022-10-21T10:34:57.879Z,23.57
2022-10-21T10:37:27.747Z,20.05
2022-10-21T10:39:57.918Z,19.42
2022-10-21T10:42:35.941Z,24.67
2022-10-21T10:45:06.831Z,21.05
2022-10-21T10:47:44.113Z,19.98
2022-10-21T10:50:47.018Z,26.55
2022-10-21T10:53:36.899Z,23.75
2022-10-21T10:56:20.729Z,29.23
2022-10-21T10:59:30.991Z,21.90
2022-10-21T11:02:09.027Z,25.38
2022-10-21T11:04:57.547Z,20.45
2022-10-21T11:07:24.366Z,25.17
2022-10-21T11:09:56.956Z,22.27
2022-10-21T11:15:00.434Z,31.83
2022-10-21T11:17:41.563Z,25.55
2022-10-21T11:20:20.740Z,31.17
2022-10-21T11:23:42.593Z,23.92
2022-10-21T11:26:22.050Z,21.85
2022-10-21T11:29:20.288Z,28.25
2022-10-21T11:32:10.169Z,26.38
2022-10-21T11:34:37.028Z,25.08
2022-10-21T11:37:32.930Z,19.20
2022-10-21T11:40:27.959Z,26.35
2022-10-21T11:42:56.695Z,28.95
2022-10-21T11:45:34.749Z,20.80
2022-10-21T11:48:09.904Z,21.30
2022-10-21T11:50:45.711Z,20.85
2022-10-21T11:53:38.897Z,23.70
2022-10-21T11:56:05.792Z,24.75
2022-10-21T11:59:06.022Z,27.70
2022-10-21T12:01:56.586Z,25.95
2022-10-21T12:04:35.797Z,26.42
2022-10-21T12:07:11.600Z,21.60
2022-10-21T12:09:45.447Z,22.88
2022-10-21T12:12:18.641Z,20.20
2022-10-21T12:14:49.371Z,19.27
2022-10-21T12:17:21.452Z,20.73
2022-10-21T12:20:08.344Z,19.33
2022-10-21T12:22:36.076Z,22.65
2022-10-21T12:25:15.023Z,21.67
2022-10-21T12:27:49.330Z,20.83
2022-10-21T12:30:47.114Z,23.35
2022-10-21T12:33:35.435Z,23.50
2022-10-21T12:36:23.586Z,20.17
2022-10-21T12:38:56.042Z,21.98
2022-10-21T12:41:34.813Z,21.52
2022-10-21T12:44:01.695Z,19.60
2022-10-21T12:46:40.620Z,22.85
2022-10-21T12:49:19.980Z,21.90
2022-10-21T12:51:56.715Z,22.08
2022-10-21T12:54:30.350Z,24.65
2022-10-21T12:57:06.697Z,19.40
2022-10-21T12:59:42.437Z,21.92
2022-10-21T13:02:18.598Z,25.58
2022-10-21T13:04:48.103Z,24.40
2022-10-21T13:07:14.938Z,22.42
2022-10-21T13:09:56.728Z,26.52
2022-10-21T13:12:23.837Z,25.63
2022-10-21T13:15:02.355Z,28.77
2022-10-21T13:17:50.097Z,23.65
2022-10-21T13:20:20.103Z,24.00
2022-10-21T13:23:01.890Z,23.17
2022-10-21T13:25:34.770Z,20.55
2022-10-21T13:28:13.345Z,24.48
2022-10-21T13:30:58.644Z,20.95
2022-10-21T13:33:38.057Z,23.58
2022-10-21T13:36:14.076Z,29.40
2022-10-21T13:38:54.620Z,25.13
2022-10-21T13:41:30.183Z,24.00
2022-10-21T13:44:02.973Z,26.90
2022-10-21T13:46:43.724Z,21.88
2022-10-21T13:49:28.642Z,24.92
2022-10-21T13:51:55.667Z,25.15
2022-10-21T13:54:22.824Z,26.48
2022-10-21T13:56:49.750Z,26.67
2022-10-21T13:59:19.454Z,22.45
2022-10-21T14:01:49.601Z,27.33
2022-10-21T14:04:20.743Z,33.80
2022-10-21T14:06:53.148Z,28.08
2022-10-21T14:09:25.757Z,34.25
2022-10-21T14:14:24.707Z,28.38
2022-10-21T14:17:03.510Z,37.33
2022-10-21T14:19:35.554Z,46.30
2022-10-21T14:22:02.823Z,29.35
2022-10-21T14:24:48.575Z,37.28
2022-10-21T14:27:23.079Z,34.38
2022-10-21T14:29:50.652Z,31.40
2022-10-21T14:32:20.734Z,35.08
2022-10-21T14:34:59.723Z,33.60
2022-10-21T14:37:26.816Z,33.00
2022-10-21T14:39:53.770Z,31.55
2022-10-21T14:42:23.186Z,33.58
2022-10-21T14:44:52.531Z,35.50
2022-10-21T14:47:24.661Z,37.03
2022-10-21T14:49:54.493Z,41.90
2022-10-21T14:52:44.510Z,47.20
2022-10-21T14:55:15.861Z,41.58
2022-10-21T14:57:55.526Z,39.75
2022-10-21T15:00:41.761Z,36.72
2022-10-21T15:03:12.745Z,38.35
2022-10-21T15:05:45.197Z,31.95
2022-10-21T15:08:20.886Z,30.85
2022-10-21T15:11:09.143Z,25.48
2022-10-21T15:13:36.172Z,33.40
2022-10-21T15:16:04.591Z,25.77
2022-10-21T15:18:36.654Z,32.90
2022-10-21T15:21:07.287Z,31.05
2022-10-21T15:23:38.722Z,41.55
2022-10-21T15:26:19.233Z,31.63
2022-10-21T15:28:46.341Z,33.45
2022-10-21T15:31:21.414Z,35.60
2022-10-21T15:33:51.769Z,33.97
2022-10-21T15:36:21.675Z,33.45
2022-10-21T15:38:48.823Z,37.72
2022-10-21T15:41:25.319Z,59.35
2022-10-21T15:44:22.484Z,61.72
2022-10-21T15:46:57.665Z,51.72
2022-10-21T15:49:32.351Z,54.95
2022-10-21T15:51:59.319Z,49.05
2022-10-21T15:54:26.312Z,63.10
2022-10-21T15:56:55.265Z,85.78
2022-10-21T15:59:24.615Z,69.25
2022-10-21T16:01:53.008Z,56.78
2022-10-21T16:04:20.173Z,61.28
2022-10-21T16:06:48.948Z,45.75
2022-10-21T16:09:28.068Z,48.10
2022-10-21T16:12:00.663Z,51.60
2022-10-21T16:14:30.115Z,57.03
2022-10-21T16:16:58.692Z,60.45
2022-10-21T16:19:25.662Z,58.90
2022-10-21T16:21:52.574Z,55.28
2022-10-21T16:24:19.619Z,57.83
2022-10-21T16:26:48.752Z,60.03
2022-10-21T16:29:23.373Z,54.42
2022-10-21T16:31:51.145Z,50.60
2022-10-21T16:34:18.222Z,56.10
2022-10-21T16:36:45.323Z,56.08
2022-10-21T16:39:22.650Z,69.80
2022-10-21T16:41:49.555Z,65.75
2022-10-21T16:44:16.511Z,70.90
2022-10-21T16:46:51.150Z,64.55
2022-10-21T16:49:25.712Z,81.45
2022-10-21T16:51:53.370Z,68.38
2022-10-21T16:54:23.238Z,66.25
2022-10-21T16:56:53.323Z,59.08
2022-10-21T16:59:22.337Z,60.73
2022-10-21T17:01:49.319Z,73.88
2022-10-21T17:04:16.467Z,66.88
2022-10-21T17:06:44.318Z,72.18
2022-10-21T17:09:11.411Z,61.15
2022-10-21T17:11:40.019Z,62.10
2022-10-21T17:14:09.551Z,58.63
2022-10-21T17:16:36.473Z,58.13
2022-10-21T17:19:03.529Z,54.58
2022-10-21T17:21:32.826Z,57.63
2022-10-21T17:24:02.259Z,64.43
2022-10-21T17:26:34.218Z,63.10
2022-10-21T17:29:01.105Z,62.57
2022-10-21T17:31:30.390Z,61.63
2022-10-21T17:33:59.983Z,62.17
2022-10-21T17:36:26.883Z,62.17
2022-10-21T17:38:54.046Z,59.38
2022-10-21T17:41:20.963Z,87.88
2022-10-21T17:43:48.418Z,80.45
2022-10-21T17:46:19.126Z,82.47
2022-10-21T17:48:50.548Z,78.13
2022-10-21T17:51:18.581Z,70.13
2022-10-21T17:53:52.558Z,75.78
2022-10-21T17:56:19.819Z,94.05
2022-10-21T17:58:51.229Z,88.85
2022-10-21T18:01:18.508Z,84.57
2022-10-21T18:03:45.534Z,100.60
2022-10-21T18:06:14.251Z,115.68
2022-10-21T18:08:41.652Z,103.50
2022-10-21T18:11:11.344Z,110.72
2022-10-21T18:13:39.278Z,107.00
2022-10-21T18:16:12.345Z,117.32
2022-10-21T18:18:39.685Z,115.30
2022-10-21T18:21:09.720Z,127.50
2022-10-21T18:23:38.149Z,119.63
2022-10-21T18:26:06.865Z,117.57
2022-10-21T18:28:34.679Z,117.90
2022-10-21T18:31:02.729Z,110.35
2022-10-21T18:33:29.958Z,115.70
2022-10-21T18:35:57.060Z,101.80
2022-10-21T18:38:23.915Z,107.00
2022-10-21T18:40:56.453Z,122.15
2022-10-21T18:43:29.037Z,140.75
2022-10-21T18:45:56.940Z,128.38
2022-10-21T18:48:24.264Z,115.55
2022-10-21T18:50:51.124Z,119.40
2022-10-21T18:53:18.102Z,128.27
2022-10-21T18:55:44.988Z,120.05
2022-10-21T18:58:12.292Z,125.43
2022-10-21T19:00:39.203Z,114.65
2022-10-21T19:03:06.241Z,131.57
2022-10-21T19:05:33.138Z,120.10
2022-10-21T19:08:00.052Z,120.95
2022-10-21T19:10:27.114Z,122.22
2022-10-21T19:12:55.047Z,134.68
2022-10-21T19:15:21.923Z,135.95
2022-10-21T19:17:48.885Z,129.88
2022-10-21T19:20:15.919Z,122.65
2022-10-21T19:22:42.905Z,129.25
2022-10-21T19:25:09.961Z,136.27
2022-10-21T19:27:36.978Z,119.30
2022-10-21T19:30:04.433Z,127.22
2022-10-21T19:32:31.328Z,170.20
2022-10-21T19:34:58.278Z,172.43
2022-10-21T19:37:25.131Z,153.75
2022-10-21T19:39:53.023Z,145.77
2022-10-21T19:42:19.971Z,133.00
2022-10-21T19:44:46.944Z,139.98
2022-10-21T19:47:13.961Z,138.48
2022-10-21T19:49:40.903Z,127.38
2022-10-21T19:52:07.854Z,130.68
2022-10-21T19:54:34.876Z,131.30
2022-10-21T19:57:01.799Z,143.10
2022-10-21T19:59:28.792Z,143.25
2022-10-21T20:01:55.697Z,122.55
2022-10-21T20:04:24.805Z,110.18
2022-10-21T20:06:51.839Z,107.28
2022-10-21T20:09:18.787Z,98.72
2022-10-21T20:11:45.730Z,116.78
2022-10-21T20:14:14.108Z,101.30
2022-10-21T20:16:42.407Z,121.75
2022-10-21T20:19:11.235Z,116.93
2022-10-21T20:21:38.219Z,97.82
2022-10-21T20:24:05.651Z,101.68
2022-10-21T20:26:32.713Z,127.90
2022-10-21T20:29:03.172Z,111.40
2022-10-21T20:31:30.806Z,107.32
2022-10-21T20:33:57.720Z,91.00
2022-10-21T20:36:27.330Z,98.60
2022-10-21T20:38:56.064Z,106.35
2022-10-21T20:41:26.507Z,106.80
2022-10-21T20:43:54.275Z,108.03
2022-10-21T20:46:23.628Z,109.72
2022-10-21T20:48:52.456Z,95.40
2022-10-21T20:51:22.336Z,89.97
2022-10-21T20:53:51.654Z,88.95
2022-10-21T20:56:19.338Z,90.63
2022-10-21T20:58:47.678Z,94.47
2022-10-21T21:01:20.795Z,95.47
2022-10-21T21:03:52.018Z,80.18
2022-10-21T21:06:19.763Z,85.90
2022-10-21T21:08:49.297Z,86.10
2022-10-21T21:11:21.248Z,92.85
2022-10-21T21:13:48.424Z,75.88
2022-10-21T21:16:18.288Z,79.72
2022-10-21T21:18:52.384Z,75.97
2022-10-21T21:21:21.170Z,71.28
2022-10-21T21:23:48.614Z,77.68
2022-10-21T21:26:15.562Z,69.82
2022-10-21T21:28:42.805Z,75.45
2022-10-21T21:31:11.027Z,79.50
2022-10-21T21:33:38.305Z,82.60
2022-10-21T21:36:06.307Z,86.95
2022-10-21T21:38:34.111Z,82.22
2022-10-21T21:41:01.603Z,80.65
2022-10-21T21:43:30.504Z,91.38
2022-10-21T21:45:58.010Z,82.85
2022-10-21T21:48:25.557Z,86.35
2022-10-21T21:50:59.564Z,86.70
2022-10-21T21:53:26.500Z,89.18
2022-10-21T21:55:53.464Z,85.57
2022-10-21T21:58:20.394Z,88.07
2022-10-21T22:00:47.417Z,107.53
2022-10-21T22:03:14.266Z,102.07
2022-10-21T22:05:41.141Z,96.10
2022-10-21T22:08:08.029Z,83.95
2022-10-21T22:10:35.768Z,97.60
2022-10-21T22:13:02.672Z,88.93
2022-10-21T22:15:46.917Z,93.85
2022-10-21T22:18:15.573Z,102.43
2022-10-21T22:20:42.562Z,109.40
2022-10-21T22:23:09.477Z,103.90
2022-10-21T22:25:36.390Z,108.15
2022-10-21T22:28:03.482Z,104.57
2022-10-21T22:30:30.458Z,97.28
2022-10-21T22:32:57.359Z,111.28
2022-10-21T22:35:24.263Z,107.47
2022-10-21T22:37:51.186Z,105.57
2022-10-21T22:40:18.117Z,110.25
2022-10-21T22:45:16.895Z,115.75
2022-10-21T22:47:43.783Z,97.45
2022-10-21T22:50:10.699Z,95.78
2022-10-21T22:52:37.897Z,108.72
2022-10-21T22:55:05.484Z,110.35
2022-10-21T22:57:32.359Z,104.38
2022-10-21T22:59:59.250Z,94.35
2022-10-21T23:02:26.125Z,95.38
2022-10-21T23:04:52.991Z,96.15
2022-10-21T23:07:19.990Z,86.90
2022-10-21T23:09:46.898Z,98.10
2022-10-21T23:12:13.929Z,101.95
2022-10-21T23:14:42.113Z,103.88
2022-10-21T23:17:09.118Z,89.97
2022-10-21T23:19:36.021Z,92.40
2022-10-21T23:22:02.921Z,84.30
2022-10-21T23:24:29.790Z,93.38
2022-10-21T23:26:59.183Z,95.28
2022-10-21T23:29:28.513Z,89.55
2022-10-21T23:31:57.334Z,98.53
2022-10-21T23:34:24.389Z,100.75
2022-10-21T23:36:51.322Z,96.65
2022-10-21T23:39:18.278Z,97.70
2022-10-21T23:41:45.687Z,96.43
2022-10-21T23:44:12.955Z,82.10
2022-10-21T23:46:39.978Z,80.60
2022-10-21T23:49:07.001Z,82.53
2022-10-21T23:51:34.067Z,82.03
2022-10-21T23:54:01.014Z,92.40
2022-10-21T23:56:27.920Z,79.22
2022-10-21T23:58:54.802Z,78.93
